全部
Smithton Airport (Smithton, Tasmania) SIO 天气
|
Smithton, Tasmania (SIO / YSMI)
晴天
多风 |
|
13 °C |
There is no TAF data available at SIO or any nearby airports.
SIO近期METAR历史数据
| Date | Time (AEST) | Flight Rules | Wind Dir. | Speed | Type | Height AGL (ft) | Visibility | Temp (°C) | Temp (°F) | Dew Point (°C) | Dew Point (°F) | Rel. Humid. | Pressure | Density Altitude | Remarks |
|---|---|---|---|---|---|---|---|---|---|---|---|---|---|---|---|
| 05-五月 | 10:00 | n/a | 230° | 13 kt | Missing | 13° | 55° | 12° | 53° | 94% | 1015 mb | -262 ft | |||
| 05-五月 | 09:00 | n/a | 230° | 11 kt | Missing | 13° | 55° | 12° | 53° | 94% | 1014 mb | -232 ft | |||
| 05-五月 | 08:00 | n/a | 240° | 9 kt | Missing | 12° | 53° | 10° | 50° | 88% | 1013 mb | -323 ft | |||
| 05-五月 | 07:00 | n/a | 230° | 10 kt | Missing | 11° | 51° | 10° | 50° | 94% | 1012 mb | -413 ft | |||
| 05-五月 | 06:00 | n/a | 240° | 11 kt | Missing | 12° | 53° | 12° | 53° | 100% | 1011 mb | -264 ft | |||
| 05-五月 | 05:00 | n/a | 230° | 11 kt | Missing | 13° | 55° | 12° | 53° | 94% | 1010 mb | -114 ft | |||
| 05-五月 | 04:00 | n/a | 220° | 12 kt | Missing | 13° | 55° | 12° | 53° | 94% | 1009 mb | -85 ft | |||
| 05-五月 | 03:00 | n/a | 220° | 10 kt | Missing | 12° | 53° | 12° | 53° | 100% | 1008 mb | -175 ft | |||
| 05-五月 | 02:00 | n/a | 210° | 7 kt | Missing | 11° | 51° | 10° | 50° | 94% | 1007 mb | -266 ft | |||
| 05-五月 | 01:00 | n/a | 200° | 9 kt | Missing | 12° | 53° | 11° | 51° | 94% | 1007 mb | -146 ft | |||
| 05-五月 | 00:00 | n/a | 200° | 8 kt | Missing | 13° | 55° | 12° | 53° | 94% | 1006 mb | 4 ft | |||
| 04-五月 | 23:00 | n/a | 180° | 10 kt | Missing | 13° | 55° | 11° | 51° | 88% | 1006 mb | 4 ft | |||
| 04-五月 | 22:00 | n/a | 30° | 4 kt | Missing | 14° | 57° | 13° | 55° | 94% | 1006 mb | 124 ft | |||
| 04-五月 | 21:00 | n/a | 10° | 7 kt | Missing | 15° | 59° | 13° | 55° | 88% | 1005 mb | 273 ft | |||
| 04-五月 | 20:00 | n/a | 10° | 7 kt | Missing | 14° | 57° | 12° | 53° | 88% | 1006 mb | 124 ft | |||
| 04-五月 | 19:00 | n/a | 10° | 12 kt | Missing | 16° | 60° | 12° | 53° | 77% | 1006 mb | 364 ft | |||
| 04-五月 | 18:00 | n/a | 360° | 11 kt | Missing | 15° | 59° | 12° | 53° | 82% | 1006 mb | 244 ft | |||
| 04-五月 | 17:00 | n/a | 360° | 10 kt | Missing | 15° | 59° | 13° | 55° | 88% | 1006 mb | 244 ft | |||
| 04-五月 | 16:00 | n/a | 360° | 12 kt | Missing | 15° | 59° | 13° | 55° | 88% | 1006 mb | 244 ft | |||
| 04-五月 | 15:00 | n/a | 350° | 13 kt | Missing | 16° | 60° | 12° | 53° | 77% | 1006 mb | 364 ft | |||
| 04-五月 | 14:00 | n/a | 360° | 14 kt | Missing | 15° | 59° | 12° | 53° | 82% | 1006 mb | 244 ft | |||
| 04-五月 | 13:00 | n/a | 10° | 15 kt | Missing | 16° | 60° | 13° | 55° | 82% | 1007 mb | 334 ft | |||
| 04-五月 | 12:00 | n/a | 360° | 17 kt | Missing | 17° | 62° | 13° | 55° | 77% | 1008 mb | 425 ft | |||
| 04-五月 | 11:00 | n/a | 360° | 15 kt | Missing | 17° | 62° | 12° | 53° | 72% | 1008 mb | 425 ft |
登录
| 您的浏览器不支持. 升级您的浏览器 |
